createdAt,value
2023-04-23T00:00:49.850Z,51.63
2023-04-23T00:03:35.182Z,51.42
2023-04-23T00:06:20.418Z,51.84
2023-04-23T00:09:05.423Z,51.64
2023-04-23T00:11:50.314Z,51.43
2023-04-23T00:14:35.377Z,51.62
2023-04-23T00:17:20.560Z,50.77
2023-04-23T00:20:05.562Z,51.77
2023-04-23T00:22:50.612Z,51.64
2023-04-23T00:25:35.680Z,50.91
2023-04-23T00:28:22.250Z,51.01
2023-04-23T00:31:07.239Z,51.71
2023-04-23T00:33:52.389Z,51.29
2023-04-23T00:36:37.465Z,50.83
2023-04-23T00:39:22.465Z,50.60
2023-04-23T00:42:07.684Z,51.05
2023-04-23T00:44:52.708Z,51.27
2023-04-23T00:47:37.870Z,51.11
2023-04-23T00:50:22.817Z,51.21
2023-04-23T00:53:07.965Z,51.67
2023-04-23T00:55:52.853Z,51.53
2023-04-23T00:58:37.912Z,50.65
2023-04-23T01:01:22.922Z,51.81
2023-04-23T01:04:07.970Z,51.52
2023-04-23T01:06:52.754Z,52.00
2023-04-23T01:09:37.831Z,52.54
2023-04-23T01:12:22.780Z,52.19
2023-04-23T01:15:07.800Z,52.34
2023-04-23T01:17:52.961Z,52.11
2023-04-23T01:20:37.869Z,53.81
2023-04-23T01:23:22.961Z,54.32
2023-04-23T01:26:08.192Z,55.55
2023-04-23T01:28:53.076Z,55.65
2023-04-23T01:31:38.195Z,56.70
2023-04-23T01:34:23.060Z,57.45
2023-04-23T01:37:08.190Z,57.29
2023-04-23T01:39:53.291Z,56.78
2023-04-23T01:42:38.272Z,57.55
2023-04-23T01:45:23.266Z,58.01
2023-04-23T01:48:08.302Z,59.00
2023-04-23T01:50:53.339Z,58.65
2023-04-23T01:53:38.377Z,58.38
2023-04-23T01:56:23.335Z,57.79
2023-04-23T01:59:08.386Z,58.21
2023-04-23T02:01:53.636Z,57.52
2023-04-23T02:04:38.751Z,58.00
2023-04-23T02:07:23.440Z,57.72
2023-04-23T02:10:08.452Z,58.17
2023-04-23T02:12:53.412Z,58.64
2023-04-23T02:15:38.432Z,59.42
2023-04-23T02:18:23.276Z,59.47
2023-04-23T02:21:08.448Z,59.54
2023-04-23T02:23:53.365Z,59.47
2023-04-23T02:26:38.325Z,60.36
2023-04-23T02:29:23.436Z,59.27
2023-04-23T02:32:08.368Z,60.13
2023-04-23T02:34:53.467Z,60.43
2023-04-23T02:37:38.299Z,60.98
2023-04-23T02:40:23.467Z,60.65
2023-04-23T02:43:08.362Z,59.63
2023-04-23T02:45:53.369Z,59.77
2023-04-23T02:48:38.326Z,59.38
2023-04-23T02:51:23.338Z,58.79
2023-04-23T02:54:08.429Z,59.15
2023-04-23T02:56:53.501Z,59.64
2023-04-23T02:59:38.597Z,59.88
2023-04-23T03:02:23.664Z,60.04
2023-04-23T03:05:08.547Z,59.43
2023-04-23T03:07:53.608Z,60.18
2023-04-23T03:10:38.657Z,60.48
2023-04-23T03:13:23.612Z,59.84
2023-04-23T03:16:08.547Z,61.48
2023-04-23T03:18:53.634Z,60.40
2023-04-23T03:21:38.647Z,60.23
2023-04-23T03:24:23.835Z,61.69
2023-04-23T03:27:08.619Z,61.33
2023-04-23T03:29:53.556Z,62.29
2023-04-23T03:32:38.776Z,61.53
2023-04-23T03:35:23.622Z,62.12
2023-04-23T03:38:08.675Z,61.97
2023-04-23T03:40:53.757Z,62.02
2023-04-23T03:43:38.834Z,63.24
2023-04-23T03:46:23.720Z,63.00
2023-04-23T03:49:08.780Z,63.70
2023-04-23T03:51:53.835Z,62.94
2023-04-23T03:54:39.007Z,62.91
2023-04-23T03:57:23.933Z,63.96
2023-04-23T04:00:08.842Z,64.03
2023-04-23T04:02:54.208Z,65.04
2023-04-23T04:05:39.119Z,64.34
2023-04-23T04:08:24.209Z,63.63
2023-04-23T04:11:09.181Z,64.96
2023-04-23T04:13:54.163Z,64.67
2023-04-23T04:16:39.064Z,65.62
2023-04-23T04:19:24.062Z,64.40
2023-04-23T04:22:09.057Z,65.18
2023-04-23T04:24:54.149Z,65.56
2023-04-23T04:27:39.202Z,65.42
2023-04-23T04:30:24.072Z,66.39
2023-04-23T04:33:09.146Z,65.66
2023-04-23T04:35:54.144Z,66.30
2023-04-23T04:38:39.372Z,66.26
2023-04-23T04:41:24.259Z,67.56
2023-04-23T04:44:09.149Z,65.22
2023-04-23T04:46:54.352Z,64.74
2023-04-23T04:49:39.312Z,65.38
2023-04-23T04:52:24.448Z,64.22
2023-04-23T04:55:09.419Z,65.58
2023-04-23T04:57:54.639Z,64.79
2023-04-23T05:00:39.604Z,63.93
2023-04-23T05:03:24.835Z,65.09
2023-04-23T05:06:09.656Z,65.39
2023-04-23T05:08:54.558Z,66.79
2023-04-23T05:11:39.607Z,65.78
2023-04-23T05:14:24.517Z,65.62
2023-04-23T05:17:09.568Z,64.73
2023-04-23T05:19:54.552Z,64.81
2023-04-23T05:22:39.784Z,65.73
2023-04-23T05:25:24.606Z,66.57
2023-04-23T05:28:09.755Z,66.68
2023-04-23T05:30:54.861Z,66.97
2023-04-23T05:33:49.171Z,66.52
2023-04-23T05:36:34.774Z,65.61
2023-04-23T05:39:19.894Z,66.79
2023-04-23T05:42:04.792Z,64.83
2023-04-23T05:44:49.748Z,63.45
2023-04-23T05:47:35.025Z,64.76
2023-04-23T05:50:20.008Z,63.87
2023-04-23T05:53:05.146Z,64.51
2023-04-23T05:55:50.018Z,64.89
2023-04-23T05:58:35.075Z,64.61
2023-04-23T06:01:20.088Z,64.87
2023-04-23T06:04:05.281Z,64.46
2023-04-23T06:06:50.251Z,63.17
2023-04-23T06:09:35.132Z,61.68
2023-04-23T06:12:20.247Z,63.08
2023-04-23T06:15:05.171Z,63.94
2023-04-23T06:17:50.232Z,63.96
2023-04-23T06:20:35.165Z,63.94
2023-04-23T06:23:20.194Z,64.38
2023-04-23T06:26:05.166Z,65.92
2023-04-23T06:28:50.110Z,65.22
2023-04-23T06:31:35.232Z,64.56
2023-04-23T06:34:20.278Z,64.61
2023-04-23T06:37:05.454Z,65.33
2023-04-23T06:39:50.332Z,65.02
2023-04-23T06:42:35.434Z,65.33
2023-04-23T06:45:20.368Z,65.60
2023-04-23T06:48:05.702Z,64.39
2023-04-23T06:50:50.606Z,63.96
2023-04-23T06:53:35.595Z,63.17
2023-04-23T06:56:20.841Z,64.18
2023-04-23T06:59:05.688Z,64.50
2023-04-23T07:01:50.876Z,65.23
2023-04-23T07:04:35.991Z,64.25
2023-04-23T07:07:20.918Z,61.12
2023-04-23T07:10:05.708Z,61.68
2023-04-23T07:12:50.673Z,61.63
2023-04-23T07:15:35.818Z,60.06
2023-04-23T07:18:20.758Z,59.39
2023-04-23T07:21:05.948Z,57.11
2023-04-23T07:23:51.010Z,56.18
2023-04-23T07:26:36.013Z,54.70
2023-04-23T07:29:20.960Z,53.27
2023-04-23T07:32:05.987Z,53.66
2023-04-23T07:34:50.793Z,58.49
2023-04-23T07:37:35.816Z,58.44
2023-04-23T07:40:20.964Z,60.12
2023-04-23T07:43:05.932Z,60.08
2023-04-23T07:45:51.131Z,61.30
2023-04-23T07:48:36.063Z,60.52
2023-04-23T07:51:21.051Z,60.95
2023-04-23T07:54:05.969Z,62.33
2023-04-23T07:56:50.976Z,62.71
2023-04-23T07:59:36.120Z,62.45
2023-04-23T08:02:21.095Z,62.06
2023-04-23T08:05:06.146Z,61.90
2023-04-23T08:07:51.141Z,62.25
2023-04-23T08:10:36.133Z,65.73
2023-04-23T08:13:21.056Z,65.16
2023-04-23T08:16:06.290Z,62.92
2023-04-23T08:19:04.237Z,63.37
2023-04-23T08:21:50.951Z,61.69
2023-04-23T08:24:36.009Z,63.43
2023-04-23T08:27:20.951Z,63.20
2023-04-23T08:30:06.090Z,63.04
2023-04-23T08:32:51.298Z,62.06
2023-04-23T08:35:36.101Z,57.46
2023-04-23T08:38:20.965Z,56.15
2023-04-23T08:41:05.936Z,58.78
2023-04-23T08:43:50.876Z,57.22
2023-04-23T08:46:36.368Z,56.99
2023-04-23T08:49:21.455Z,55.56
2023-04-23T08:52:06.393Z,54.71
2023-04-23T08:54:51.406Z,53.39
2023-04-23T08:57:36.272Z,53.75
2023-04-23T09:00:21.646Z,52.73
2023-04-23T09:03:06.629Z,55.04
2023-04-23T09:05:51.869Z,56.67
2023-04-23T09:08:36.838Z,53.01
2023-04-23T09:11:21.906Z,51.95
2023-04-23T09:14:06.937Z,52.43
2023-04-23T09:16:51.954Z,52.16
2023-04-23T09:19:36.845Z,54.00
2023-04-23T09:22:21.728Z,53.83
2023-04-23T09:25:06.737Z,55.91
2023-04-23T09:27:51.591Z,57.50
2023-04-23T09:30:36.677Z,56.55
2023-04-23T09:33:21.819Z,58.52
2023-04-23T09:36:06.779Z,60.31
2023-04-23T09:38:51.772Z,61.53
2023-04-23T09:41:37.587Z,61.92
2023-04-23T09:44:24.087Z,61.64
2023-04-23T09:47:09.095Z,59.14
2023-04-23T09:49:54.050Z,58.23
2023-04-23T09:52:39.026Z,57.49
2023-04-23T09:55:23.941Z,58.34
2023-04-23T09:58:09.052Z,58.70
2023-04-23T10:00:54.113Z,54.29
2023-04-23T10:03:41.965Z,57.40
2023-04-23T10:09:15.744Z,55.27
2023-04-23T10:12:00.788Z,53.76
2023-04-23T10:14:45.915Z,55.45
2023-04-23T10:17:30.843Z,54.07
2023-04-23T10:20:16.070Z,49.06
2023-04-23T10:23:01.015Z,52.98
2023-04-23T10:25:46.124Z,46.92
2023-04-23T10:28:31.057Z,51.75
2023-04-23T10:31:16.227Z,51.06
2023-04-23T10:34:01.314Z,47.17
2023-04-23T10:36:46.318Z,50.29
2023-04-23T10:39:31.451Z,49.75
2023-04-23T10:42:16.380Z,48.23
2023-04-23T10:45:07.012Z,49.59
2023-04-23T10:47:55.362Z,47.47
2023-04-23T10:50:52.768Z,42.83
2023-04-23T10:53:44.649Z,44.54
2023-04-23T10:56:29.764Z,44.29
2023-04-23T10:59:14.659Z,44.21
2023-04-23T11:01:59.842Z,42.35
2023-04-23T11:04:45.034Z,43.36
2023-04-23T11:07:29.796Z,40.75
2023-04-23T11:10:14.967Z,41.32
2023-04-23T11:12:59.976Z,44.28
2023-04-23T11:15:44.960Z,39.78
2023-04-23T11:18:29.900Z,38.66
2023-04-23T11:21:14.912Z,41.51
2023-04-23T11:23:59.928Z,41.51
2023-04-23T11:26:44.966Z,38.29
2023-04-23T11:29:30.011Z,39.70
2023-04-23T11:32:15.161Z,38.26
2023-04-23T11:35:00.249Z,39.32
2023-04-23T11:37:45.154Z,38.36
2023-04-23T11:40:30.076Z,39.71
2023-04-23T11:43:15.024Z,41.33
2023-04-23T11:46:00.132Z,41.16
2023-04-23T11:48:44.964Z,39.82
2023-04-23T11:51:30.027Z,39.69
2023-04-23T11:54:15.185Z,40.17
2023-04-23T11:57:00.233Z,41.78
2023-04-23T11:59:45.310Z,39.67
2023-04-23T12:02:30.198Z,39.24
2023-04-23T12:05:15.128Z,37.10
2023-04-23T12:08:00.064Z,38.44
2023-04-23T12:10:45.015Z,38.55
2023-04-23T12:13:29.902Z,38.39
2023-04-23T12:16:14.967Z,38.23
2023-04-23T12:18:59.956Z,37.65
2023-04-23T12:21:44.832Z,37.33
2023-04-23T12:24:29.985Z,36.12
2023-04-23T12:27:14.914Z,36.37
2023-04-23T12:29:59.991Z,37.21
2023-04-23T12:32:44.894Z,36.69
2023-04-23T12:35:30.000Z,37.27
2023-04-23T12:38:14.998Z,36.13
2023-04-23T12:40:59.972Z,34.92
2023-04-23T12:43:45.047Z,35.59
2023-04-23T12:46:30.066Z,35.87
2023-04-23T12:49:15.254Z,36.20
2023-04-23T12:52:00.182Z,36.27
2023-04-23T12:54:45.163Z,35.30
2023-04-23T12:57:29.975Z,35.42
2023-04-23T13:00:14.977Z,35.25
2023-04-23T13:03:00.204Z,35.84
2023-04-23T13:05:44.948Z,35.94
2023-04-23T13:08:29.979Z,36.14
2023-04-23T13:11:14.969Z,35.98
2023-04-23T13:14:00.145Z,36.87
2023-04-23T13:16:45.047Z,36.68
2023-04-23T13:19:31.001Z,36.44
2023-04-23T13:22:15.939Z,36.69
2023-04-23T13:25:00.840Z,37.05
2023-04-23T13:27:46.134Z,37.17
2023-04-23T13:30:31.200Z,37.01
2023-04-23T13:33:16.254Z,37.63
2023-04-23T13:36:01.222Z,38.34
2023-04-23T13:38:46.261Z,38.31
2023-04-23T13:41:31.378Z,37.66
2023-04-23T13:44:16.408Z,38.26
2023-04-23T13:47:01.405Z,38.41
2023-04-23T13:49:46.274Z,39.76
2023-04-23T13:52:31.295Z,39.41
2023-04-23T13:55:16.223Z,41.02
2023-04-23T13:58:01.207Z,41.52
2023-04-23T14:00:46.142Z,41.55
2023-04-23T14:03:31.181Z,41.82
2023-04-23T14:06:16.160Z,43.59
2023-04-23T14:09:01.013Z,43.99
2023-04-23T14:11:46.059Z,44.25
2023-04-23T14:14:31.106Z,44.07
2023-04-23T14:17:16.184Z,43.85
2023-04-23T14:20:01.060Z,44.78
2023-04-23T14:22:46.113Z,45.11
2023-04-23T14:25:31.084Z,45.16
2023-04-23T14:28:16.058Z,46.50
2023-04-23T14:31:01.028Z,46.59
2023-04-23T14:33:45.882Z,48.62
2023-04-23T14:36:30.957Z,47.60
2023-04-23T14:39:15.939Z,48.39
2023-04-23T14:42:01.148Z,49.07
2023-04-23T14:44:46.117Z,47.86
2023-04-23T14:47:31.052Z,47.76
2023-04-23T14:50:16.031Z,45.42
2023-04-23T14:53:00.946Z,45.60
2023-04-23T14:55:46.059Z,46.82
2023-04-23T14:58:30.935Z,47.41
2023-04-23T15:01:15.988Z,45.13
2023-04-23T15:04:00.990Z,44.89
2023-04-23T15:06:45.890Z,42.43
2023-04-23T15:09:30.887Z,42.64
2023-04-23T15:12:15.892Z,41.88
2023-04-23T15:15:00.880Z,40.81
2023-04-23T15:17:45.970Z,39.83
2023-04-23T15:20:31.085Z,39.22
2023-04-23T15:23:15.904Z,39.15
2023-04-23T15:26:01.008Z,37.67
2023-04-23T15:28:45.880Z,38.18
2023-04-23T15:31:31.005Z,38.33
2023-04-23T15:34:15.774Z,38.45
2023-04-23T15:37:00.760Z,36.48
2023-04-23T15:39:45.785Z,39.10
2023-04-23T15:42:30.724Z,39.14
2023-04-23T15:45:15.751Z,41.60
2023-04-23T15:48:00.769Z,42.56
2023-04-23T15:50:45.991Z,43.27
2023-04-23T15:53:30.596Z,43.52
2023-04-23T15:56:15.644Z,42.08
2023-04-23T15:59:00.459Z,42.57
2023-04-23T16:01:45.462Z,42.32
2023-04-23T16:04:30.623Z,42.11
2023-04-23T16:07:15.169Z,42.32
2023-04-23T16:10:00.151Z,43.63
2023-04-23T16:12:45.093Z,44.24
2023-04-23T16:15:30.291Z,44.78
2023-04-23T16:18:15.288Z,43.88
2023-04-23T16:21:00.235Z,43.39
2023-04-23T16:23:45.090Z,43.21
2023-04-23T16:26:30.179Z,41.29
2023-04-23T16:29:22.252Z,41.43
2023-04-23T16:32:08.171Z,40.31
2023-04-23T16:34:53.165Z,39.55
2023-04-23T16:37:38.288Z,40.37
2023-04-23T16:40:23.104Z,39.43
2023-04-23T16:43:08.190Z,39.84
2023-04-23T16:45:53.224Z,39.70
2023-04-23T16:48:38.162Z,40.49
2023-04-23T16:51:23.336Z,41.85
2023-04-23T16:54:08.310Z,38.69
2023-04-23T16:56:53.466Z,39.96
2023-04-23T16:59:38.258Z,39.91
2023-04-23T17:02:23.438Z,40.95
2023-04-23T17:05:08.230Z,42.41
2023-04-23T17:07:53.265Z,43.10
2023-04-23T17:10:38.303Z,43.40
2023-04-23T17:13:23.316Z,42.21
2023-04-23T17:16:08.500Z,42.39
2023-04-23T17:18:53.464Z,42.72
2023-04-23T17:21:38.478Z,42.02
2023-04-23T17:24:23.422Z,42.52
2023-04-23T17:27:08.245Z,42.04
2023-04-23T17:29:53.126Z,42.97
2023-04-23T17:32:38.288Z,44.50
2023-04-23T17:35:23.214Z,44.52
2023-04-23T17:38:08.274Z,44.62
2023-04-23T17:40:53.431Z,44.44
2023-04-23T17:43:38.369Z,44.82
2023-04-23T17:46:23.387Z,44.71
2023-04-23T17:49:08.299Z,44.91
2023-04-23T17:51:53.424Z,47.20
2023-04-23T17:54:38.208Z,49.19
2023-04-23T17:57:23.222Z,50.03
2023-04-23T18:00:08.178Z,49.71
2023-04-23T18:02:53.413Z,50.60
2023-04-23T18:05:38.519Z,48.98
2023-04-23T18:08:23.487Z,52.21
2023-04-23T18:11:08.603Z,55.00
2023-04-23T18:13:53.535Z,54.44
2023-04-23T18:16:38.498Z,55.66
2023-04-23T18:19:23.477Z,55.35
2023-04-23T18:22:08.317Z,57.33
2023-04-23T18:24:53.462Z,57.22
2023-04-23T18:27:38.389Z,58.59
2023-04-23T18:30:23.648Z,56.90
2023-04-23T18:33:08.503Z,58.94
2023-04-23T18:35:53.568Z,58.26
2023-04-23T18:38:38.599Z,56.19
2023-04-23T18:41:23.631Z,58.37
2023-04-23T18:44:08.557Z,58.83
2023-04-23T18:46:53.553Z,57.00
2023-04-23T18:49:38.691Z,55.12
2023-04-23T18:52:23.624Z,55.70
2023-04-23T18:55:08.606Z,54.61
2023-04-23T18:57:53.559Z,55.13
2023-04-23T19:00:38.670Z,57.50
2023-04-23T19:03:26.683Z,58.12
2023-04-23T19:06:12.117Z,57.69
2023-04-23T19:08:57.154Z,57.28
2023-04-23T19:11:41.985Z,58.23
2023-04-23T19:14:26.958Z,59.13
2023-04-23T19:17:11.912Z,59.98
2023-04-23T19:19:56.807Z,57.02
2023-04-23T19:22:42.315Z,56.22
2023-04-23T19:25:27.396Z,55.68
2023-04-23T19:28:12.511Z,56.19
2023-04-23T19:30:57.449Z,57.14
2023-04-23T19:33:42.568Z,60.14
2023-04-23T19:36:27.448Z,59.48
2023-04-23T19:39:12.619Z,60.85
2023-04-23T19:41:57.717Z,60.83
2023-04-23T19:44:42.648Z,57.89
2023-04-23T19:47:27.797Z,58.61
2023-04-23T19:50:12.676Z,57.85
2023-04-23T19:52:57.919Z,57.10
2023-04-23T19:55:42.765Z,57.12
2023-04-23T19:58:27.958Z,59.30
2023-04-23T20:01:12.976Z,58.34
2023-04-23T20:03:57.858Z,57.57
2023-04-23T20:06:42.781Z,56.61
2023-04-23T20:09:27.654Z,56.31
2023-04-23T20:12:12.837Z,58.94
2023-04-23T20:14:57.782Z,59.26
2023-04-23T20:17:42.938Z,58.75
2023-04-23T20:20:27.864Z,60.58
2023-04-23T20:23:12.855Z,60.47
2023-04-23T20:25:57.950Z,59.32
2023-04-23T20:28:42.987Z,58.44
2023-04-23T20:31:28.061Z,58.07
2023-04-23T20:34:13.797Z,56.43
2023-04-23T20:36:58.504Z,56.37
2023-04-23T20:39:43.652Z,58.31
2023-04-23T20:42:29.092Z,59.00
2023-04-23T20:45:14.026Z,57.82
2023-04-23T20:47:58.848Z,55.16
2023-04-23T20:50:44.027Z,56.03
2023-04-23T20:53:28.944Z,57.21
2023-04-23T20:56:14.088Z,58.20
2023-04-23T20:58:59.161Z,59.27
2023-04-23T21:01:43.912Z,58.50
2023-04-23T21:04:28.920Z,59.15
2023-04-23T21:07:13.814Z,59.45
2023-04-23T21:09:58.719Z,59.16
2023-04-23T21:12:43.702Z,58.75
2023-04-23T21:15:28.695Z,58.81
2023-04-23T21:18:13.445Z,60.36
2023-04-23T21:20:58.485Z,59.34
2023-04-23T21:23:43.462Z,59.95
2023-04-23T21:26:28.599Z,59.67
2023-04-23T21:29:13.642Z,58.81
2023-04-23T21:31:58.646Z,58.84
2023-04-23T21:34:43.636Z,59.38
2023-04-23T21:37:28.601Z,59.97
2023-04-23T21:40:13.712Z,59.23
2023-04-23T21:42:58.628Z,58.45
2023-04-23T21:45:43.717Z,58.30
2023-04-23T21:48:28.547Z,57.33
2023-04-23T21:51:13.696Z,58.38
2023-04-23T21:53:58.764Z,60.31
2023-04-23T21:56:43.655Z,61.01
2023-04-23T21:59:28.776Z,62.15
2023-04-23T22:02:13.860Z,62.34
2023-04-23T22:04:58.835Z,61.49
2023-04-23T22:07:43.628Z,61.37
2023-04-23T22:10:28.610Z,60.97
2023-04-23T22:13:13.511Z,61.28
2023-04-23T22:15:58.583Z,61.15
2023-04-23T22:18:43.703Z,62.88
2023-04-23T22:21:28.618Z,62.23
2023-04-23T22:24:13.517Z,62.15
2023-04-23T22:26:58.523Z,62.53
2023-04-23T22:29:43.961Z,61.84
2023-04-23T22:32:29.048Z,61.78
2023-04-23T22:35:14.019Z,61.56
2023-04-23T22:37:58.930Z,62.52
2023-04-23T22:40:44.042Z,63.19
2023-04-23T22:43:29.043Z,62.54
2023-04-23T22:46:14.190Z,61.42
2023-04-23T22:48:59.247Z,60.68
2023-04-23T22:51:44.275Z,61.01
2023-04-23T22:54:29.265Z,60.90
2023-04-23T22:57:14.108Z,61.54
2023-04-23T22:59:59.113Z,61.94
2023-04-23T23:02:44.190Z,61.32
2023-04-23T23:05:29.049Z,61.48
2023-04-23T23:08:14.151Z,61.88
2023-04-23T23:10:59.222Z,62.43
2023-04-23T23:13:44.463Z,61.04
2023-04-23T23:16:29.381Z,60.63
2023-04-23T23:19:14.492Z,58.34
2023-04-23T23:21:59.499Z,57.34
2023-04-23T23:24:44.558Z,58.11
2023-04-23T23:27:29.574Z,58.41
2023-04-23T23:30:14.490Z,57.22
2023-04-23T23:32:59.702Z,59.12
2023-04-23T23:35:44.667Z,58.43
2023-04-23T23:38:29.659Z,58.58
2023-04-23T23:41:14.775Z,58.81
2023-04-23T23:43:59.540Z,60.26
2023-04-23T23:46:44.673Z,59.33
2023-04-23T23:49:29.588Z,60.13
2023-04-23T23:52:14.645Z,59.90
2023-04-23T23:54:59.589Z,59.78
2023-04-23T23:57:44.716Z,60.24
